Time;durP1;ratioP1;P1;durP2;ratioP2;P2;SDS_P1;SDS_P2;PMS_P1;PMS_P2;Temp;Humidity;BMP_temperature;BMP_pressure;BME280_temperature;BME280_humidity;BME280_pressure;Samples;Min_cycle;Max_cycle;Signal;HPM_P1;HPM_P2
2023/06/19 00:02:27;;;;;;;27.75;20.63;;;;;;;29.48;75.92;100791.16;5059418;28;66534;-41
2023/06/19 00:04:58;;;;;;;52.50;24.77;;;;;;;29.44;77.54;100795.31;5056414;28;69904;-43
2023/06/19 00:07:29;;;;;;;32.70;23.30;;;;;;;29.45;77.34;100798.84;5061329;28;65042;-42
2023/06/19 00:10:01;;;;;;;36.10;23.55;;;;;;;29.34;77.88;100787.66;5055237;28;70434;-44
2023/06/19 00:12:32;;;;;;;40.63;23.70;;;;;;;29.44;77.81;100786.38;5058481;28;65732;-41
2023/06/19 00:15:04;;;;;;;30.05;24.42;;;;;;;29.27;77.36;100767.94;5055788;28;69030;-40
2023/06/19 00:17:37;;;;;;;40.80;27.38;;;;;;;29.49;77.73;100787.41;5056704;28;66332;-39
2023/06/19 00:20:09;;;;;;;46.13;27.17;;;;;;;29.53;77.96;100787.81;5052562;28;69553;-41
2023/06/19 00:22:41;;;;;;;38.88;26.95;;;;;;;29.59;77.46;100795.09;5060072;28;66212;-41
2023/06/19 00:25:12;;;;;;;43.13;24.98;;;;;;;29.67;76.78;100794.03;5054686;28;69080;-41
2023/06/19 00:27:43;;;;;;;30.23;22.10;;;;;;;29.72;75.70;100789.63;5042720;28;66450;-40
2023/06/19 00:30:15;;;;;;;34.58;21.98;;;;;;;29.70;74.90;100767.41;5058107;28;69565;-40
2023/06/19 00:32:46;;;;;;;28.67;20.55;;;;;;;29.86;74.88;100792.28;5060011;28;66606;-41
2023/06/19 00:35:19;;;;;;;31.92;21.75;;;;;;;29.88;74.94;100799.13;5058691;28;69512;-39
2023/06/19 00:37:50;;;;;;;36.63;21.92;;;;;;;29.69;74.38;100764.91;5058710;28;66368;-40
2023/06/19 00:40:28;;;;;;;34.88;22.35;;;;;;;29.38;74.56;100709.72;5061340;28;70177;-47
2023/06/19 00:43:00;;;;;;;38.03;24.00;;;;;;;30.03;74.41;100815.06;5064330;28;66397;-44
2023/06/19 00:45:31;;;;;;;26.25;20.02;;;;;;;30.07;71.74;100816.31;5061357;28;69870;-46
2023/06/19 00:48:04;;;;;;;20.17;17.90;;;;;;;29.92;70.52;100796.81;5062100;28;66109;-46
2023/06/19 00:50:37;;;;;;;20.83;18.38;;;;;;;30.03;70.66;100815.06;5041282;28;70206;-45
2023/06/19 00:53:08;;;;;;;18.67;16.92;;;;;;;30.15;70.25;100818.75;5060856;28;66576;-48
2023/06/19 00:55:40;;;;;;;19.25;17.40;;;;;;;30.19;70.18;100827.25;5048351;28;69825;-43
2023/06/19 00:58:11;;;;;;;19.93;17.97;;;;;;;30.19;69.66;100824.56;5059257;28;65096;-47
2023/06/19 01:00:43;;;;;;;18.83;16.98;;;;;;;30.25;70.10;100829.13;5058176;28;70797;-43
2023/06/19 01:03:32;;;;;;;18.52;16.73;;;;;;;29.74;69.83;100741.59;5033078;28;66877;-43
2023/06/19 01:06:09;;;;;;;18.40;16.60;;;;;;;30.21;69.90;100823.31;5052506;28;70099;-43
2023/06/19 01:09:05;;;;;;;18.38;16.55;;;;;;;30.26;70.78;100837.03;5058933;28;65783;-45
2023/06/19 01:11:45;;;;;;;17.95;15.80;;;;;;;29.73;69.48;100723.72;5046636;28;70657;-46
2023/06/19 01:14:24;;;;;;;16.95;15.48;;;;;;;30.40;69.18;100842.38;5057627;28;66523;-44
2023/06/19 01:16:57;;;;;;;16.98;15.30;;;;;;;30.19;69.36;100802.91;5057824;28;70440;-42
2023/06/19 01:19:28;;;;;;;17.25;15.07;;;;;;;30.38;69.22;100833.63;5040379;28;65885;-45
2023/06/19 01:22:04;;;;;;;15.55;14.18;;;;;;;30.43;69.49;100839.25;5036336;28;70114;-44
2023/06/19 01:24:37;;;;;;;15.10;13.75;;;;;;;30.33;69.11;100825.34;5059060;28;66609;-45
2023/06/19 01:27:09;;;;;;;16.38;14.75;;;;;;;30.34;69.17;100816.16;5057499;28;69742;-44
2023/06/19 01:29:41;;;;;;;16.02;14.52;;;;;;;30.50;68.94;100834.59;5059432;28;65609;-43
2023/06/19 01:32:20;;;;;;;15.80;14.40;;;;;;;30.52;69.23;100847.91;5058712;28;70142;-45
2023/06/19 01:34:54;;;;;;;14.40;12.85;;;;;;;30.45;68.93;100816.31;5053789;28;65873;-45
2023/06/19 01:37:29;;;;;;;14.15;13.05;;;;;;;30.60;69.05;100842.25;5056134;28;70800;-44
2023/06/19 01:40:04;;;;;;;15.10;13.68;;;;;;;30.67;68.73;100846.56;5046985;28;66228;-44
2023/06/19 01:42:39;;;;;;;12.98;11.98;;;;;;;30.19;68.97;100765.88;5051117;28;70666;-43
2023/06/19 01:45:10;;;;;;;13.13;11.95;;;;;;;30.70;69.24;100848.84;5057436;28;65753;-44
2023/06/19 01:47:42;;;;;;;14.00;12.63;;;;;;;30.61;69.02;100836.59;5054915;28;70150;-42
2023/06/19 01:50:14;;;;;;;16.92;11.75;;;;;;;30.71;68.81;100845.06;5056317;28;66037;-45
2023/06/19 01:52:46;;;;;;;12.85;11.95;;;;;;;30.80;68.95;100850.25;5035680;28;70602;-45
2023/06/19 01:55:18;;;;;;;13.15;12.10;;;;;;;30.76;68.28;100847.13;5059018;28;66242;-42
2023/06/19 01:57:50;;;;;;;12.00;11.02;;;;;;;30.65;68.07;100818.88;5057238;28;70664;-43
2023/06/19 02:00:21;;;;;;;11.05;10.25;;;;;;;30.77;68.42;100837.13;5039401;28;65176;-42
2023/06/19 02:02:53;;;;;;;11.32;10.18;;;;;;;30.85;67.99;100842.28;5058893;28;69644;-45
2023/06/19 02:05:24;;;;;;;;;;;;;;;30.59;68.86;100854.94;5062808;28;65744;-43
2023/06/19 02:07:56;;;;;;;11.73;10.63;;;;;;;30.87;68.14;100840.16;5061263;28;70120;-43
2023/06/19 02:10:27;;;;;;;11.18;10.18;;;;;;;30.89;68.08;100841.59;5062512;28;66276;-45
2023/06/19 02:12:58;;;;;;;10.60;10.00;;;;;;;30.53;67.74;100766.47;5062045;28;70822;-44
2023/06/19 02:15:30;;;;;;;10.27;9.38;;;;;;;30.99;67.87;100834.88;5046172;28;66072;-45
2023/06/19 02:18:01;;;;;;;10.60;9.80;;;;;;;31.02;67.72;100837.97;5045537;28;69331;-45
2023/06/19 02:20:32;;;;;;;10.10;9.27;;;;;;;31.03;67.40;100827.94;5060172;28;66433;-43
2023/06/19 02:23:04;;;;;;;9.95;9.18;;;;;;;30.90;67.69;100809.97;5051868;28;70382;-46
2023/06/19 02:25:35;;;;;;;9.35;8.40;;;;;;;30.92;67.56;100807.84;5045711;28;66154;-46
2023/06/19 02:28:07;;;;;;;9.77;8.93;;;;;;;30.96;67.22;100802.81;5043700;28;71443;-44
2023/06/19 02:30:38;;;;;;;9.10;8.43;;;;;;;31.13;67.34;100831.81;5043428;28;64911;-46
2023/06/19 02:33:10;;;;;;;8.88;8.38;;;;;;;31.10;67.34;100815.19;5055925;28;70224;-47
2023/06/19 02:35:44;;;;;;;9.43;8.63;;;;;;;31.12;67.34;100824.75;5060112;28;66161;-44
2023/06/19 02:38:15;;;;;;;8.80;8.15;;;;;;;31.22;67.49;100828.81;5061010;28;70109;-42
2023/06/19 02:40:47;;;;;;;8.85;8.13;;;;;;;31.12;67.00;100803.06;5060991;28;66367;-42
2023/06/19 02:43:18;;;;;;;9.30;8.43;;;;;;;31.28;66.78;100819.78;5058212;28;69691;-46
2023/06/19 02:45:49;;;;;;;9.35;8.65;;;;;;;31.24;67.10;100810.47;5062844;28;65373;-45
2023/06/19 02:48:23;;;;;;;8.63;8.13;;;;;;;31.25;67.25;100806.69;5055239;28;69303;-46
2023/06/19 02:50:55;;;;;;;8.95;8.07;;;;;;;31.34;66.87;100806.19;5043029;28;66605;-42
2023/06/19 02:53:26;;;;;;;8.13;7.43;;;;;;;31.39;67.01;100808.22;5026566;28;70173;-45
2023/06/19 02:55:58;;;;;;;8.45;7.80;;;;;;;31.40;66.69;100807.19;5055186;28;66845;-44
2023/06/19 02:58:30;;;;;;;8.52;7.70;;;;;;;31.00;66.55;100737.13;5051384;28;70387;-43
2023/06/19 03:01:02;;;;;;;10.60;8.52;;;;;;;31.50;66.29;100815.59;5058342;28;66525;-44
2023/06/19 03:03:37;;;;;;;11.05;7.50;;;;;;;31.44;66.47;100797.53;5060454;28;69951;-43
2023/06/19 03:06:09;;;;;;;8.27;7.72;;;;;;;31.55;66.69;100813.03;5040397;28;66560;-44
2023/06/19 03:08:40;;;;;;;8.30;7.65;;;;;;;31.56;66.24;100811.97;5040000;28;69514;-45
2023/06/19 03:11:11;;;;;;;7.07;6.47;;;;;;;31.59;66.44;100819.69;5033779;28;66056;-45
2023/06/19 03:13:51;;;;;;;8.05;7.53;;;;;;;31.51;66.22;100801.00;5062459;28;71023;-44
2023/06/19 03:16:22;;;;;;;7.78;7.28;;;;;;;31.66;66.13;100825.03;5059908;28;66153;-44
2023/06/19 03:18:54;;;;;;;8.77;8.00;;;;;;;31.67;66.19;100825.84;5042586;28;70319;-45
2023/06/19 03:21:26;;;;;;;7.32;6.93;;;;;;;31.70;65.94;100828.09;5042942;28;66286;-45
2023/06/19 03:23:57;;;;;;;7.63;7.13;;;;;;;31.73;65.91;100830.34;5061007;28;70317;-45
2023/06/19 03:26:28;;;;;;;8.95;7.80;;;;;;;31.74;66.00;100823.88;5024435;28;63732;-47
2023/06/19 03:29:03;;;;;;;7.88;7.32;;;;;;;31.78;65.82;100816.94;5055513;28;70303;-44
2023/06/19 03:32:06;;;;;;;8.48;7.75;;;;;;;31.80;65.69;100814.84;5050205;28;65598;-47
2023/06/19 03:34:38;;;;;;;7.15;6.55;;;;;;;31.83;65.62;100809.78;5039562;28;70193;-46
2023/06/19 03:37:12;;;;;;;7.93;7.13;;;;;;;31.69;65.43;100785.78;5037989;28;66463;-44
2023/06/19 03:39:44;;;;;;;7.72;7.03;;;;;;;31.89;65.25;100813.47;5040917;28;70556;-43
2023/06/19 03:42:16;;;;;;;7.82;7.22;;;;;;;31.81;65.10;100801.03;5041184;28;66803;-42
2023/06/19 03:44:48;;;;;;;7.72;7.13;;;;;;;31.92;65.16;100807.59;5040708;28;70674;-44
2023/06/19 03:47:19;;;;;;;7.60;7.10;;;;;;;31.94;64.89;100810.91;5048858;28;66439;-45
2023/06/19 03:49:51;;;;;;;7.40;6.72;;;;;;;31.92;64.95;100796.75;5062387;28;69937;-46
2023/06/19 03:52:24;;;;;;;7.65;6.95;;;;;;;31.99;64.60;100807.53;5028255;28;65784;-44
2023/06/19 03:54:55;;;;;;;7.80;7.15;;;;;;;32.01;64.68;100806.25;5059849;28;69454;-42
2023/06/19 03:57:27;;;;;;;7.97;7.38;;;;;;;31.97;64.45;100794.19;5062954;28;65474;-45
2023/06/19 03:59:58;;;;;;;7.20;6.72;;;;;;;31.91;64.61;100778.81;5059270;28;69796;-44
2023/06/19 04:02:29;;;;;;;6.85;6.45;;;;;;;32.05;64.52;100812.84;5062030;28;65358;-44
2023/06/19 04:05:01;;;;;;;7.45;6.85;;;;;;;31.90;64.31;100766.31;5059094;28;69802;-44
2023/06/19 04:07:32;;;;;;;6.95;6.45;;;;;;;31.96;64.16;100781.69;5059060;28;66179;-46
2023/06/19 04:10:04;;;;;;;6.95;6.45;;;;;;;32.11;64.26;100796.72;5050221;28;69360;-45
2023/06/19 04:12:35;;;;;;;7.60;6.93;;;;;;;32.01;64.24;100767.41;5057204;28;66292;-44
2023/06/19 04:15:08;;;;;;;6.68;6.18;;;;;;;32.17;63.95;100788.47;5059150;28;70010;-43
2023/06/19 04:17:39;;;;;;;7.15;6.57;;;;;;;32.22;63.92;100790.50;5029598;28;65216;-44
2023/06/19 04:20:11;;;;;;;7.72;7.03;;;;;;;32.13;63.74;100770.19;5050611;28;69522;-44
2023/06/19 04:22:42;;;;;;;7.80;6.32;;;;;;;32.11;63.70;100769.56;5052401;28;66538;-43
2023/06/19 04:25:14;;;;;;;7.25;6.68;;;;;;;32.26;63.72;100786.25;5044661;28;70241;-45
2023/06/19 04:27:45;;;;;;;6.47;6.05;;;;;;;32.29;63.48;100780.38;5040199;28;65208;-43
2023/06/19 04:30:16;;;;;;;7.18;6.15;;;;;;;32.19;63.53;100763.81;5060287;28;69312;-45
2023/06/19 04:32:48;;;;;;;6.30;5.90;;;;;;;32.32;63.30;100779.06;5058328;28;65961;-45
2023/06/19 04:35:19;;;;;;;6.53;5.93;;;;;;;32.18;63.34;100748.56;5056431;28;69879;-43
2023/06/19 04:37:51;;;;;;;7.47;5.95;;;;;;;32.37;63.15;100771.03;5059011;28;66385;-45
2023/06/19 04:40:23;;;;;;;9.10;6.88;;;;;;;32.39;62.88;100769.75;5059193;28;70014;-45
2023/06/19 04:42:54;;;;;;;6.82;6.35;;;;;;;32.41;62.83;100767.66;5057875;28;65877;-44
2023/06/19 04:45:26;;;;;;;6.80;6.20;;;;;;;32.43;62.81;100770.97;5060732;28;70252;-45
2023/06/19 04:47:57;;;;;;;6.97;6.25;;;;;;;32.45;62.80;100751.69;5060421;28;66544;-44
2023/06/19 04:50:28;;;;;;;6.68;6.07;;;;;;;32.40;62.48;100738.00;5053353;28;69998;-43
2023/06/19 04:52:59;;;;;;;6.18;5.47;;;;;;;32.47;62.40;100744.19;5060133;28;65384;-43
2023/06/19 04:55:31;;;;;;;6.15;5.65;;;;;;;32.51;62.16;100744.53;5060233;28;70238;-47
2023/06/19 04:58:02;;;;;;;6.72;6.22;;;;;;;32.36;62.17;100715.13;5060407;28;66760;-45
2023/06/19 05:00:34;;;;;;;7.13;6.45;;;;;;;32.57;62.40;100738.16;5059845;28;70518;-44
2023/06/19 05:03:05;;;;;;;7.38;6.10;;;;;;;32.54;61.95;100725.06;5060270;28;65096;-43
2023/06/19 05:05:37;;;;;;;10.15;5.53;;;;;;;32.59;61.83;100725.19;5060082;28;70049;-43
2023/06/19 05:08:08;;;;;;;8.35;5.47;;;;;;;32.61;61.84;100723.06;5055149;28;65869;-43
2023/06/19 05:10:39;;;;;;;9.68;5.72;;;;;;;32.60;62.01;100719.53;5054544;28;69643;-44
2023/06/19 05:13:14;;;;;;;6.68;6.10;;;;;;;32.51;61.78;100695.66;5054907;28;65607;-41
2023/06/19 05:15:45;;;;;;;7.20;5.82;;;;;;;32.59;61.55;100693.41;5058807;28;69903;-44
2023/06/19 05:18:17;;;;;;;6.03;5.53;;;;;;;32.56;61.68;100690.34;5059006;28;66353;-43
2023/06/19 05:20:49;;;;;;;6.45;5.65;;;;;;;32.72;61.60;100704.03;5056946;28;70149;-44
2023/06/19 05:23:20;;;;;;;6.40;5.75;;;;;;;32.69;61.57;100701.00;5058227;28;65525;-41
2023/06/19 05:25:51;;;;;;;6.72;6.13;;;;;;;32.75;61.51;100697.31;5059330;28;70678;-43
2023/06/19 05:28:23;;;;;;;6.00;5.53;;;;;;;32.76;61.94;100681.84;5057872;28;66440;-44
2023/06/19 05:30:54;;;;;;;7.80;5.93;;;;;;;32.81;61.55;100690.09;5040316;28;69422;-44
2023/06/19 05:33:25;;;;;;;6.03;5.20;;;;;;;32.77;61.43;100668.03;5059167;28;65466;-43
2023/06/19 05:35:57;;;;;;;7.47;6.13;;;;;;;32.84;61.45;100673.31;5059962;28;69338;-44
2023/06/19 05:38:30;;;;;;;6.50;6.03;;;;;;;32.86;61.34;100666.59;5068826;27;66262;-43
2023/06/19 05:41:03;;;;;;;6.15;5.75;;;;;;;32.91;61.17;100663.16;5062806;28;70419;-44
2023/06/19 05:43:34;;;;;;;5.43;5.00;;;;;;;32.93;61.21;100667.31;5063527;28;66026;-44
2023/06/19 05:46:05;;;;;;;6.28;5.68;;;;;;;32.96;61.02;100668.72;5061739;28;70391;-42
2023/06/19 05:48:37;;;;;;;9.32;5.70;;;;;;;32.84;60.98;100641.53;5067966;28;66624;-45
2023/06/19 05:51:08;;;;;;;6.05;5.63;;;;;;;32.87;61.00;100634.81;5062717;28;69528;-44
2023/06/19 05:53:40;;;;;;;5.93;5.43;;;;;;;33.05;61.00;100670.03;5044963;28;65408;-41
2023/06/19 05:56:11;;;;;;;6.20;5.63;;;;;;;33.10;60.96;100666.59;5026078;28;69302;-44
2023/06/19 05:58:42;;;;;;;5.82;5.43;;;;;;;33.13;60.79;100658.78;5055355;28;65486;-40
2023/06/19 06:01:14;;;;;;;6.50;5.05;;;;;;;33.17;60.69;100661.81;5064340;28;69991;-43
2023/06/19 06:03:45;;;;;;;5.63;5.00;;;;;;;33.22;60.73;100658.38;5062497;28;66052;-42
2023/06/19 06:06:17;;;;;;;5.82;5.28;;;;;;;33.23;60.61;100655.41;5043457;28;69971;-43
2023/06/19 06:08:48;;;;;;;6.17;5.67;;;;;;;32.93;60.60;100601.25;5064396;28;66656;-45
2023/06/19 06:11:20;;;;;;;7.40;5.32;;;;;;;33.30;60.26;100645.22;5066562;28;70341;-43
2023/06/19 06:13:51;;;;;;;6.90;5.10;;;;;;;33.32;60.29;100651.25;5060187;28;66120;-44
2023/06/19 06:16:22;;;;;;;5.60;5.05;;;;;;;33.38;60.21;100660.34;5061292;28;70107;-44
2023/06/19 06:18:54;;;;;;;14.85;5.90;;;;;;;33.37;60.17;100640.47;5061758;28;66405;-42
2023/06/19 06:21:25;;;;;;;5.40;4.95;;;;;;;33.47;60.15;100641.75;5043038;28;70195;-44
2023/06/19 06:23:56;;;;;;;;;;;;;;;33.21;60.35;100641.25;5042624;28;66213;-43
2023/06/19 06:26:27;;;;;;;5.90;5.32;;;;;;;33.51;60.01;100632.00;5058989;28;70169;-46
2023/06/19 06:28:58;;;;;;;8.10;5.00;;;;;;;33.54;59.80;100635.13;5043356;28;64765;-44
2023/06/19 06:31:30;;;;;;;5.82;5.22;;;;;;;33.38;60.13;100595.91;5051053;28;70246;-43
2023/06/19 06:34:01;;;;;;;7.03;4.65;;;;;;;33.61;60.13;100629.50;5059934;28;66193;-42
2023/06/19 06:36:32;;;;;;;9.80;5.03;;;;;;;33.64;59.93;100629.03;5059615;28;70606;-42
2023/06/19 06:39:08;;;;;;;6.40;5.80;;;;;;;33.65;59.61;100618.97;5045000;28;66379;-43
2023/06/19 06:41:40;;;;;;;7.43;4.50;;;;;;;33.71;60.05;100624.25;5066773;28;70079;-45
2023/06/19 06:44:14;;;;;;;5.28;4.78;;;;;;;33.77;59.60;100623.28;5043895;28;65663;-43
2023/06/19 06:46:45;;;;;;;7.43;5.80;;;;;;;33.78;59.78;100614.03;5059703;28;69986;-42
2023/06/19 06:49:16;;;;;;;;;;;;;;;33.55;59.58;100614.19;5061096;28;66688;-44
2023/06/19 06:51:48;;;;;;;5.20;4.70;;;;;;;33.74;59.20;100588.41;5061367;28;69788;-42
2023/06/19 06:54:19;;;;;;;6.32;5.25;;;;;;;33.81;59.59;100586.31;5060576;28;67077;-43
2023/06/19 06:56:52;;;;;;;6.13;4.70;;;;;;;33.95;59.79;100596.88;5066524;28;70169;-42
2023/06/19 06:59:25;;;;;;;9.98;5.00;;;;;;;33.60;59.31;100532.69;5061676;28;66744;-39
2023/06/19 07:01:57;;;;;;;5.03;4.63;;;;;;;33.93;59.66;100582.69;5054721;28;70065;-43
2023/06/19 07:04:28;;;;;;;;;;;;;;;33.78;59.98;100586.00;5068302;28;67349;-39
2023/06/19 07:06:59;;;;;;;6.40;4.78;;;;;;;34.02;59.45;100570.34;5060524;28;69922;-43
2023/06/19 07:09:31;;;;;;;5.97;5.40;;;;;;;33.73;59.61;100510.56;5061105;28;67107;-43
2023/06/19 07:12:04;;;;;;;;;;;;;;;33.87;59.66;100576.34;5070833;28;69342;-44
2023/06/19 07:14:35;;;;;;;6.43;4.13;;;;;;;34.07;59.24;100562.25;5042140;28;66623;-41
2023/06/19 07:17:07;;;;;;;6.88;5.15;;;;;;;34.17;59.60;100573.31;5066215;28;70151;-42
2023/06/19 07:19:38;;;;;;;10.55;4.75;;;;;;;34.23;59.31;100566.84;5061109;28;66663;-41
2023/06/19 07:22:10;;;;;;;5.00;4.60;;;;;;;34.23;59.53;100561.41;5060471;28;69799;-41
2023/06/19 07:24:41;;;;;;;5.85;4.70;;;;;;;34.22;59.01;100553.50;5065124;28;66168;-40
2023/06/19 07:27:12;;;;;;;;;;;;;;;33.98;59.63;100548.22;5062410;28;69695;-42
2023/06/19 07:29:45;;;;;;;5.47;4.30;;;;;;;33.94;59.12;100497.28;5058594;28;65984;-43
2023/06/19 07:32:16;;;;;;;4.40;4.00;;;;;;;34.28;59.34;100543.50;5049731;28;70193;-42
2023/06/19 07:34:47;;;;;;;;;;;;;;;34.04;59.45;100540.94;5064028;28;66164;-43
2023/06/19 07:37:18;;;;;;;6.20;4.18;;;;;;;34.11;59.05;100514.44;5060736;28;70939;-43
2023/06/19 07:39:51;;;;;;;7.53;3.92;;;;;;;33.73;59.38;100436.31;5064645;28;66450;-41
2023/06/19 07:42:23;;;;;;;5.50;4.53;;;;;;;34.35;58.89;100541.41;5063870;28;70634;-43
2023/06/19 07:44:54;;;;;;;;;;;;;;;34.10;59.46;100541.88;5069238;28;66174;-42
2023/06/19 07:47:27;;;;;;;4.78;4.38;;;;;;;34.18;59.21;100506.88;5063325;28;70482;-43
2023/06/19 07:49:59;;;;;;;4.80;4.47;;;;;;;34.38;58.61;100525.41;5063905;28;66785;-45
2023/06/19 07:52:31;;;;;;;6.18;4.20;;;;;;;34.34;58.78;100518.00;5060425;28;70139;-43
2023/06/19 07:55:02;;;;;;;4.55;4.13;;;;;;;34.38;58.77;100519.13;5060612;28;66342;-44
2023/06/19 07:57:35;;;;;;;;;;;;;;;34.15;59.28;100517.47;5056148;28;69526;-43
2023/06/19 08:00:13;;;;;;;4.95;4.40;;;;;;;34.41;58.78;100516.72;5057743;28;66941;-41
2023/06/19 08:02:45;;;;;;;8.45;4.40;;;;;;;34.38;58.88;100502.78;5062839;28;70336;-49
2023/06/19 08:05:16;;;;;;;;;;;;;;;34.16;59.46;100500.88;5043636;28;66216;-45
2023/06/19 08:07:47;;;;;;;5.90;4.28;;;;;;;34.26;58.41;100473.78;5061676;28;70121;-44
2023/06/19 08:10:19;;;;;;;5.15;4.65;;;;;;;34.44;58.57;100496.34;5062902;28;66180;-44
2023/06/19 08:12:50;;;;;;;4.60;4.20;;;;;;;34.29;58.53;100472.44;5059427;28;69965;-43
2023/06/19 08:15:23;;;;;;;4.55;4.05;;;;;;;34.26;58.36;100457.44;5058753;28;66732;-42
2023/06/19 08:17:54;;;;;;;4.70;4.25;;;;;;;34.48;58.08;100487.38;5062722;28;70037;-40
2023/06/19 08:20:25;;;;;;;4.20;3.90;;;;;;;34.42;57.91;100476.69;5064445;28;66705;-45
2023/06/19 08:22:57;;;;;;;5.07;3.63;;;;;;;34.46;58.13;100478.66;5064931;28;70018;-42
2023/06/19 08:25:28;;;;;;;5.35;4.40;;;;;;;34.45;57.94;100470.75;5057119;28;66991;-42
2023/06/19 08:28:00;;;;;;;4.35;4.00;;;;;;;34.51;57.95;100479.78;5061418;28;70602;-47
2023/06/19 08:30:31;;;;;;;;;;;;;;;34.23;58.35;100484.34;5062515;28;66790;-43
2023/06/19 08:33:02;;;;;;;4.53;4.22;;;;;;;34.52;58.15;100476.84;5058919;28;70054;-42
2023/06/19 08:35:33;;;;;;;6.95;4.45;;;;;;;34.50;57.97;100484.41;5059488;28;65946;-44
2023/06/19 08:38:05;;;;;;;5.05;4.53;;;;;;;34.52;57.90;100479.56;5057105;28;70499;-44
2023/06/19 08:40:36;;;;;;;5.22;4.55;;;;;;;34.52;58.32;100487.72;5059789;28;66398;-41
2023/06/19 08:43:08;;;;;;;4.47;4.07;;;;;;;34.15;58.31;100425.72;5042602;28;69275;-44
2023/06/19 08:45:40;;;;;;;4.30;4.00;;;;;;;34.35;58.20;100470.59;5041727;28;66400;-43
2023/06/19 08:48:14;;;;;;;4.40;4.10;;;;;;;34.50;57.92;100487.16;5054589;28;69295;-44
2023/06/19 08:50:45;;;;;;;5.00;4.50;;;;;;;34.52;57.68;100493.16;5057937;28;65442;-43
2023/06/19 08:53:17;;;;;;;4.65;4.18;;;;;;;34.53;58.41;100494.00;5061255;28;70655;-42
2023/06/19 08:55:48;;;;;;;6.07;4.40;;;;;;;34.51;58.42;100491.50;5061653;28;67230;-43
2023/06/19 08:58:23;;;;;;;6.43;3.80;;;;;;;34.35;57.96;100459.72;5058803;28;69647;-43
2023/06/19 09:00:55;;;;;;;4.18;3.90;;;;;;;34.53;58.07;100488.53;5059278;28;66367;-43
2023/06/19 09:03:26;;;;;;;;;;;;;;;34.27;58.52;100496.41;5063973;28;70690;-43
2023/06/19 09:06:09;;;;;;;5.03;4.63;;;;;;;33.94;58.04;100405.59;5070911;27;66914;-43
2023/06/19 09:08:41;;;;;;;4.60;4.22;;;;;;;34.55;58.15;100511.72;5058653;28;69214;-41
2023/06/19 09:11:12;;;;;;;;;;;;;;;34.26;58.71;100501.00;5058527;28;65548;-43
2023/06/19 09:13:43;;;;;;;6.15;4.47;;;;;;;34.55;57.95;100511.72;5049956;28;70686;-42
2023/06/19 09:16:14;;;;;;;4.53;4.18;;;;;;;34.54;57.90;100504.63;5059195;28;66260;-42
2023/06/19 09:18:47;;;;;;;4.80;3.88;;;;;;;33.47;58.19;100332.56;5056971;28;69960;-42
2023/06/19 09:21:23;;;;;;;6.55;4.15;;;;;;;34.56;57.72;100528.91;5039673;28;65510;-42
2023/06/19 09:23:54;;;;;;;5.43;4.57;;;;;;;34.46;58.24;100500.47;5059394;28;70309;-43
2023/06/19 09:26:31;;;;;;;4.90;4.50;;;;;;;34.55;58.05;100514.44;5034216;28;65925;-40
2023/06/19 09:29:16;;;;;;;4.50;4.18;;;;;;;34.50;57.70;100517.09;5058779;28;70174;-43
2023/06/19 09:31:50;;;;;;;6.63;5.10;;;;;;;34.11;57.86;100443.66;5054646;28;66529;-42
2023/06/19 09:34:21;;;;;;;5.63;5.00;;;;;;;34.51;57.83;100505.13;5058365;28;69598;-42
2023/06/19 09:36:53;;;;;;;5.38;4.88;;;;;;;34.54;57.56;100512.78;5056564;28;65594;-44
2023/06/19 09:39:27;;;;;;;5.30;4.90;;;;;;;33.38;57.35;100329.47;5058925;28;69561;-42
2023/06/19 09:42:03;;;;;;;4.97;4.57;;;;;;;34.53;57.85;100516.59;5058158;28;65302;-42
2023/06/19 09:44:43;;;;;;;7.70;5.47;;;;;;;33.93;57.45;100424.88;5057809;28;70576;-43
2023/06/19 09:47:22;;;;;;;5.70;5.30;;;;;;;34.53;57.89;100532.94;5049983;28;66480;-43
2023/06/19 09:49:59;;;;;;;6.53;5.30;;;;;;;34.53;57.36;100527.50;5056556;28;70757;-42
2023/06/19 09:52:31;;;;;;;6.07;5.57;;;;;;;34.56;57.89;100534.38;5057465;28;66316;-41
2023/06/19 09:55:08;;;;;;;10.38;6.15;;;;;;;34.55;57.93;100541.69;5037955;28;69671;-41
2023/06/19 09:57:40;;;;;;;6.45;5.78;;;;;;;34.55;57.98;100536.25;5054738;28;65411;-41
2023/06/19 10:00:22;;;;;;;6.70;6.07;;;;;;;34.55;58.11;100538.13;5053409;28;70291;-43
2023/06/19 10:02:57;;;;;;;7.97;5.13;;;;;;;34.44;57.74;100523.56;5054151;28;65709;-44
2023/06/19 10:05:30;;;;;;;6.93;6.07;;;;;;;34.53;58.01;100535.66;5058030;28;70952;-42
2023/06/19 10:08:04;;;;;;;6.22;5.75;;;;;;;34.54;57.85;100540.03;5056319;28;66322;-42
2023/06/19 10:10:36;;;;;;;7.43;5.82;;;;;;;34.52;58.18;100533.19;5058262;28;69772;-45
2023/06/19 10:13:16;;;;;;;;;;;;;;;34.23;58.53;100549.69;5058876;28;66774;-42
2023/06/19 10:15:48;;;;;;;6.35;5.72;;;;;;;34.40;58.23;100531.41;5055645;28;69906;-43
2023/06/19 10:18:20;;;;;;;6.75;5.78;;;;;;;34.41;57.90;100533.06;5056775;28;66245;-45
2023/06/19 10:20:53;;;;;;;5.90;5.50;;;;;;;34.51;57.97;100550.59;5056622;28;69268;-43
2023/06/19 10:23:28;;;;;;;6.53;5.95;;;;;;;34.51;57.81;100545.97;5054545;28;66674;-44
2023/06/19 10:26:01;;;;;;;6.10;5.50;;;;;;;34.51;58.25;100551.41;5057634;28;70212;-43
2023/06/19 10:28:34;;;;;;;6.47;5.53;;;;;;;33.87;57.88;100442.22;5061555;28;65649;-43
2023/06/19 10:31:08;;;;;;;5.70;5.20;;;;;;;34.32;57.94;100523.66;5044337;28;70343;-44
2023/06/19 10:33:42;;;;;;;6.45;5.95;;;;;;;34.42;58.21;100531.16;5061072;28;66273;-42
2023/06/19 10:36:22;;;;;;;5.63;5.22;;;;;;;33.19;58.54;100362.63;5060035;28;70048;-43
2023/06/19 10:38:54;;;;;;;5.68;5.18;;;;;;;34.45;58.58;100541.53;5057553;28;65176;-40
2023/06/19 10:41:26;;;;;;;6.70;6.00;;;;;;;34.43;58.61;100547.22;5061094;28;69803;-45
2023/06/19 10:43:58;;;;;;;5.93;5.53;;;;;;;34.44;58.34;100542.63;5054466;28;66258;-43
2023/06/19 10:46:33;;;;;;;5.65;5.15;;;;;;;34.42;58.08;100561.13;5060209;28;69581;-44
2023/06/19 10:49:07;;;;;;;5.68;5.18;;;;;;;34.43;58.55;100560.03;5061401;28;65685;-42
2023/06/19 10:51:40;;;;;;;5.90;5.38;;;;;;;34.40;58.09;100555.91;5059920;28;69629;-42
2023/06/19 10:54:11;;;;;;;5.47;5.07;;;;;;;34.40;58.13;100553.19;5047111;28;65667;-41
2023/06/19 10:56:48;;;;;;;9.13;4.95;;;;;;;34.18;58.50;100530.56;5060396;28;69210;-43
2023/06/19 10:59:20;;;;;;;5.43;5.03;;;;;;;34.26;58.52;100547.28;5059079;28;64996;-44
2023/06/19 11:01:51;;;;;;;6.43;5.80;;;;;;;33.88;58.40;100504.56;5058054;28;70059;-44
2023/06/19 11:04:23;;;;;;;5.55;5.05;;;;;;;34.36;58.30;100575.75;5061914;28;66332;-44
2023/06/19 11:06:55;;;;;;;5.63;5.10;;;;;;;34.31;58.30;100565.59;5061432;28;70663;-41
2023/06/19 11:09:26;;;;;;;6.20;5.70;;;;;;;34.35;58.82;100584.97;5055697;28;66008;-43
2023/06/19 11:11:59;;;;;;;6.50;6.07;;;;;;;34.25;58.39;100570.16;5069554;28;69908;-42
2023/06/19 11:14:31;;;;;;;7.75;5.78;;;;;;;34.30;58.63;100583.03;5060879;28;66755;-41
2023/06/19 11:17:02;;;;;;;;;;;;;;;34.01;59.46;100579.56;5062004;28;69998;-43
2023/06/19 11:19:33;;;;;;;6.07;5.68;;;;;;;34.29;59.00;100591.44;5059996;28;65933;-44
2023/06/19 11:22:07;;;;;;;6.32;5.82;;;;;;;34.29;58.64;100588.69;5062335;28;69909;-43
2023/06/19 11:24:45;;;;;;;7.95;5.50;;;;;;;33.22;58.76;100421.91;5062867;28;65781;-45
2023/06/19 11:27:28;;;;;;;5.90;5.38;;;;;;;33.91;58.55;100547.59;5058621;28;70335;-43
2023/06/19 11:30:05;;;;;;;6.40;5.80;;;;;;;34.25;58.84;100602.81;5062817;28;66668;-44
2023/06/19 11:32:44;;;;;;;5.90;5.50;;;;;;;34.24;58.96;100598.47;5060953;28;69175;-43
2023/06/19 11:35:16;;;;;;;8.27;6.60;;;;;;;33.34;59.18;100452.53;5062118;28;65293;-44
2023/06/19 11:37:48;;;;;;;8.60;5.75;;;;;;;34.18;58.74;100591.28;5061054;28;69248;-42
2023/06/19 11:40:22;;;;;;;;;;;;;;;33.92;59.50;100597.38;5060698;28;66484;-43
2023/06/19 11:42:55;;;;;;;5.65;5.30;;;;;;;33.97;58.83;100556.66;5040390;28;70019;-43
2023/06/19 11:45:26;;;;;;;;;;;;;;;33.91;59.73;100595.75;5061143;28;65588;-42
2023/06/19 11:47:57;;;;;;;6.38;5.68;;;;;;;34.18;58.82;100591.28;5063378;28;70260;-43
2023/06/19 11:50:28;;;;;;;6.05;5.65;;;;;;;34.07;59.04;100567.69;5062887;28;66469;-44
2023/06/19 11:53:01;;;;;;;8.32;6.20;;;;;;;34.10;59.13;100577.25;5040347;28;69378;-44